• Join FlightAware (Why Join?)
  • Login
  • US Flag 
05:57PM EDT


 

Airport Tracker/Info


-or-


 

Live Flight TrackerFlight Track Log ✈ N821WW ✈ 04-Sep-2013 ✈ KPUB - KAPA

Flight Track Log - Related Links

Times and Time Zones

All times are in EDT time to prevent confusion due to time zone crossing. See the N821WW flight status page for this flight to view local times or setup timezone preferences in your user account.

Time Position Orientation Groundspeed Altitude Reporting Facility
EDT Latitude Longitude Course Direction KTS MPH feet Rate Location/Type
08:33PM 38.3253 -104.4925 21° North 80 92 5,700  Level Denver Center
08:35PM 38.3639 -104.4872 North 86 99 6,300 360 Climbing Denver Center
08:36PM 38.3894 -104.4828 North 92 106 6,700 360 Climbing Denver Center
08:37PM 38.4222 -104.4783 North 100 115 7,100 360 Climbing Denver Center
08:37PM 38.4436 -104.4764 North 108 124 7,400 360 Climbing Denver Center
08:38PM 38.4547 -104.4643 21° North  Level FlightAware Approximate
08:39PM 38.4861 -104.4708 North 110 127 7,900  Level Denver Center
08:40PM 38.5164 -104.4667 North 113 130 8,200 300 Climbing Denver Center
08:41PM 38.5472 -104.4636 North 114 131 8,600 360 Climbing Denver Center
08:42PM 38.5831 -104.4583 North 115 132 9,000 300 Climbing Denver Center
08:43PM 38.6133 -104.4558 North 115 132 9,300 300 Climbing Denver Center
08:44PM 38.6475 -104.4525 North 112 129 9,700 300 Climbing Denver Center
08:45PM 38.6761 -104.4494 North 109 125 10,000 120 Climbing Denver Center
08:46PM 38.7103 -104.4458 North 130 150 10,000  Level Denver Center
08:47PM 38.7492 -104.4403 North 131 151 10,000  Level Denver Center
08:48PM 38.7883 -104.4350 North 128 147 10,000  Level Denver Center
08:49PM 38.8222 -104.4314 North 128 147 10,000  Level Denver Center
08:50PM 38.8611 -104.4283 North 127 146 10,000  Level Denver Center
08:51PM 38.8917 -104.4508 330° Northwest 128 147 10,000  Level Denver Center
08:52PM 38.9289 -104.4747 333° Northwest 132 152 10,000  Level Denver Center
08:53PM 38.9628 -104.5069 324° Northwest 127 146 10,000  Level Denver Center
08:54PM 38.9906 -104.5403 317° Northwest 136 157 10,000  Level Denver Center
08:55PM 39.0186 -104.5719 319° Northwest 133 153 10,000  Level Denver Center
08:56PM 39.0444 -104.5994 320° Northwest 123 142 10,000 -60 Level Denver Center
08:58PM 39.0675 -104.6303 314° West 119 137 9,900 -60 Descending Denver Center
08:59PM 39.0989 -104.6608 323° Northwest 117 135 9,900  Level Denver Center
09:00PM 39.1253 -104.6831 327° Northwest 113 130 9,900  Level Denver Center
09:01PM 39.1514 -104.7072 324° Northwest 116 133 9,900  Level Denver Center
09:02PM 39.1847 -104.7181 346° North 116 133 10,000 -60 Climbing Denver Center
09:03PM 39.2161 -104.7308 342° North 118 136 9,800 -420 Descending Denver Center
09:04PM 39.2567 -104.7425 347° North 137 158 9,200 -480 Descending Denver Center
09:05PM 39.2944 -104.7578 343° North 142 163 8,900 -120 Descending Denver Center
09:06PM 39.3281 -104.7653 350° North 127 146 9,000  Climbing Denver Center
09:07PM 39.3653 -104.7633 North 124 143 9,000  Level Denver Center
09:08PM 39.3989 -104.7631 360° North 122 140 9,000  Level Denver Center
09:09PM 39.4169 -104.8017 301° West 129 148 9,000 -480 Level Denver Center
09:10PM 39.4294 -104.8483 289° West 140 161 8,100 -540 Descending Denver Center
09:11PM 39.4464 -104.8956 295° West 144 166 7,900 -60 Descending Denver Center
09:12PM 39.4814 -104.8994 355° North 122 140 8,000  Climbing Denver Center
09:13PM 39.5119 -104.8992 360° North 114 131 8,000 -60 Level Denver Center
09:14PM 39.5467 -104.9000 359° North 117 135 7,900 -480 Descending Denver Center
09:15PM 39.5794 -104.8981 North 120 138 7,100 -780 Descending Denver Center
09:16PM 39.6028 -104.8761 36° Northeast 108 124 6,300 -540 Descending Denver Center
09:17PM 39.5944 -104.8522 114° Southeast 80 92 6,000 -300 Descending Denver Center
09:19PM 39.5667 -104.8333 235° Southwest  Level FlightAware Approximate
09:26PM 39.5701 -104.8493 235° Southwest  Level Estimated
09:27PM 39.5701 -104.8493 235° Southwest  Level Estimated
09:28PM 39.5701 -104.8493 235° Southwest  Level Estimated